Time;durP1;ratioP1;P1;durP2;ratioP2;P2;SDS_P1;SDS_P2;PMS_P1;PMS_P2;Temp;Humidity;BMP_temperature;BMP_pressure;BME280_temperature;BME280_humidity;BME280_pressure;Samples;Min_cycle;Max_cycle;Signal;HPM_P1;HPM_P2
2023/02/13 00:02:05;;;;;;;15.70;7.17;;;;;;;4.98;100.00;103136.78;4990381;28;20034;-76
2023/02/13 00:04:30;;;;;;;18.00;7.93;;;;;;;4.98;100.00;103133.28;4972942;28;20042;-76
2023/02/13 00:06:55;;;;;;;15.20;7.17;;;;;;;4.94;100.00;103124.63;4971807;28;20152;-75
2023/02/13 00:09:21;;;;;;;15.77;8.07;;;;;;;4.99;100.00;103137.66;4970934;28;20046;-78
2023/02/13 00:11:46;;;;;;;12.20;6.87;;;;;;;4.95;100.00;103131.63;4972442;28;20108;-80
2023/02/13 00:14:11;;;;;;;15.33;7.27;;;;;;;4.85;100.00;103114.44;4971773;28;20042;-77
2023/02/13 00:16:37;;;;;;;15.87;8.73;;;;;;;4.96;100.00;103127.19;4967545;28;20035;-78
2023/02/13 00:19:02;;;;;;;11.83;6.77;;;;;;;4.95;100.00;103121.03;4983214;28;20031;-76
2023/02/13 00:21:27;;;;;;;13.23;6.90;;;;;;;4.93;100.00;103122.03;4988828;28;20474;-75
2023/02/13 00:23:53;;;;;;;11.17;6.50;;;;;;;4.94;100.00;103118.44;4968990;28;20028;-76
2023/02/13 00:26:18;;;;;;;14.50;7.10;;;;;;;4.88;100.00;103106.34;4971379;28;20034;-75
2023/02/13 00:28:45;;;;;;;15.00;7.72;;;;;;;4.92;100.00;103112.38;4981720;28;20129;-79
2023/02/13 00:31:17;;;;;;;12.02;6.80;;;;;;;4.94;100.00;103113.16;4971009;28;20141;-78
2023/02/13 00:33:43;;;;;;;12.73;7.47;;;;;;;4.92;100.00;103121.19;4982781;28;20031;-76
2023/02/13 00:36:18;;;;;;;13.57;7.20;;;;;;;4.90;100.00;103116.88;4971066;28;20023;-77
2023/02/13 00:38:43;;;;;;;12.88;6.65;;;;;;;4.81;100.00;103111.06;4987619;28;20419;-76
2023/02/13 00:41:10;;;;;;;;;;;;;;;4.87;100.00;103117.88;4971114;28;20085;-76
2023/02/13 00:43:35;;;;;;;13.95;5.85;;;;;;;4.88;100.00;103118.72;4981712;28;19925;-75
2023/02/13 00:46:02;;;;;;;10.05;6.30;;;;;;;4.86;100.00;103116.13;4970399;28;20104;-80
2023/02/13 00:48:29;;;;;;;14.43;6.82;;;;;;;4.86;100.00;103118.78;4971318;28;20491;-79
2023/02/13 00:50:54;;;;;;;16.42;7.78;;;;;;;4.81;100.00;103112.84;4970552;28;20034;-75
2023/02/13 00:53:22;;;;;;;17.50;6.90;;;;;;;4.82;100.00;103119.84;4970156;28;20034;-76
2023/02/13 00:55:48;;;;;;;11.15;6.65;;;;;;;4.85;100.00;103131.16;4984513;28;20377;-78
2023/02/13 00:58:14;;;;;;;13.43;6.80;;;;;;;4.85;100.00;103135.63;4989193;28;20038;-78
2023/02/13 01:00:40;;;;;;;12.70;6.57;;;;;;;4.81;100.00;103123.44;4987711;28;20039;-76
2023/02/13 01:03:05;;;;;;;14.90;7.95;;;;;;;4.85;100.00;103135.63;4970919;28;20065;-78
2023/02/13 01:05:31;;;;;;;13.83;7.03;;;;;;;4.87;100.00;103131.13;4975598;28;20043;-81
2023/02/13 01:07:57;;;;;;;14.43;7.57;;;;;;;4.84;100.00;103125.94;4988232;28;20968;-76
2023/02/13 01:10:23;;;;;;;9.53;6.20;;;;;;;4.80;100.00;103122.56;4970343;28;20120;-77
2023/02/13 01:12:48;;;;;;;10.00;6.20;;;;;;;4.83;100.00;103111.00;4970438;28;20033;-76
2023/02/13 01:15:13;;;;;;;11.80;6.85;;;;;;;4.79;100.00;103093.53;4975550;28;20045;-78
2023/02/13 01:17:39;;;;;;;15.07;7.37;;;;;;;4.78;100.00;103100.59;4988447;28;20377;-75
2023/02/13 01:20:06;;;;;;;15.87;7.23;;;;;;;4.78;100.00;103108.53;4970508;28;20124;-78
2023/02/13 01:22:31;;;;;;;13.23;7.60;;;;;;;4.77;100.00;103101.50;4966499;28;20566;-78
2023/02/13 01:24:56;;;;;;;10.40;7.17;;;;;;;4.76;100.00;103110.41;4987897;28;20049;-79
2023/02/13 01:27:22;;;;;;;15.20;8.07;;;;;;;4.77;100.00;103100.66;4970338;28;20297;-79
2023/02/13 01:29:47;;;;;;;15.97;8.30;;;;;;;4.84;100.00;103107.41;4969717;28;20030;-77
2023/02/13 01:32:13;;;;;;;22.27;9.10;;;;;;;4.84;100.00;103102.97;4980957;28;20602;-77
2023/02/13 01:34:38;;;;;;;14.73;7.97;;;;;;;4.79;100.00;103093.53;4982352;28;20289;-77
2023/02/13 01:37:03;;;;;;;13.30;7.87;;;;;;;4.83;100.00;103101.25;4970237;28;20121;-76
2023/02/13 01:39:29;;;;;;;14.43;7.33;;;;;;;4.79;100.00;103097.03;4966472;28;20125;-77
2023/02/13 01:41:54;;;;;;;14.98;7.68;;;;;;;4.77;100.00;103088.28;4968690;28;20034;-77
2023/02/13 01:44:56;;;;;;;15.27;8.02;;;;;;;4.86;100.00;103095.81;4969041;28;20569;-81
2023/02/13 01:47:24;;;;;;;14.02;7.25;;;;;;;4.82;100.00;103085.44;4984405;28;20085;-77
2023/02/13 01:50:02;;;;;;;13.93;7.55;;;;;;;4.77;100.00;103080.34;4982227;28;20061;-76
2023/02/13 01:52:28;;;;;;;13.52;6.88;;;;;;;4.80;100.00;103064.34;4987160;28;20042;-76
2023/02/13 01:54:54;;;;;;;18.90;8.40;;;;;;;4.80;100.00;103066.13;4980450;28;20065;-75
2023/02/13 01:57:24;;;;;;;15.98;8.15;;;;;;;4.77;100.00;103067.13;4969926;28;20029;-76
2023/02/13 01:59:57;;;;;;;14.40;7.53;;;;;;;4.74;100.00;103069.91;4969337;28;20030;-75
2023/02/13 02:02:23;;;;;;;16.10;8.18;;;;;;;4.69;100.00;103071.03;4968704;28;20042;-75
2023/02/13 02:04:49;;;;;;;15.90;8.40;;;;;;;4.70;100.00;103078.91;4987702;28;20026;-80
2023/02/13 02:07:22;;;;;;;18.70;8.07;;;;;;;4.72;100.00;103079.69;4970598;28;20030;-76
2023/02/13 02:09:48;;;;;;;14.23;7.68;;;;;;;4.77;100.00;103083.00;4965778;28;20030;-76
2023/02/13 02:12:36;;;;;;;13.70;7.60;;;;;;;4.74;100.00;103063.75;4969290;28;20041;-75
2023/02/13 02:15:05;;;;;;;13.77;7.18;;;;;;;4.70;100.00;103046.28;4969265;28;20041;-78
2023/02/13 02:17:31;;;;;;;14.43;6.45;;;;;;;4.68;100.00;103024.31;4969600;28;20395;-83
2023/02/13 02:20:35;;;;;;;17.17;8.30;;;;;;;4.72;100.00;103008.25;4982217;28;20042;-80
2023/02/13 02:23:25;;;;;;;13.10;6.40;;;;;;;4.74;100.00;102994.94;4972445;28;20574;-79
2023/02/13 02:26:38;;;;;;;14.02;7.32;;;;;;;4.74;100.00;102979.91;4969132;28;20030;-79
2023/02/13 02:29:17;;;;;;;13.75;6.22;;;;;;;4.84;100.00;102969.78;4969162;28;20061;-77
2023/02/13 02:32:07;;;;;;;14.30;7.18;;;;;;;4.81;100.00;102938.16;4982453;28;20124;-76
2023/02/13 02:34:41;;;;;;;11.60;6.15;;;;;;;4.81;100.00;102912.53;4953946;28;20027;-77
2023/02/13 02:37:16;;;;;;;13.00;5.88;;;;;;;4.81;100.00;102890.53;4980674;28;20447;-77
2023/02/13 02:39:50;;;;;;;;;;;;;;;4.84;100.00;102896.50;4969506;28;20034;-76
2023/02/13 02:42:30;;;;;;;13.18;5.45;;;;;;;4.81;100.00;102883.44;4968465;28;20295;-79
2023/02/13 02:45:30;;;;;;;11.27;6.10;;;;;;;4.79;100.00;102884.44;4985172;28;20026;-81
2023/02/13 02:50:53;;;;;;;11.43;6.50;;;;;;;4.79;100.00;102860.63;4968488;28;20841;-79
2023/02/13 02:53:21;;;;;;;14.63;5.47;;;;;;;4.78;100.00;102843.03;4969101;28;20038;-77
2023/02/13 02:55:53;;;;;;;15.40;6.65;;;;;;;4.72;100.00;102830.09;4967647;28;20026;-76
2023/02/13 03:06:58;;;;;;;10.43;5.18;;;;;;;4.78;100.00;102796.25;4972237;28;20052;-75
2023/02/13 03:15:13;;;;;;;13.10;5.47;;;;;;;4.82;100.00;102787.25;4994737;28;20030;-77
2023/02/13 03:23:34;;;;;;;10.60;4.90;;;;;;;4.82;100.00;102786.34;4985270;28;20057;-76
2023/02/13 03:26:15;;;;;;;9.73;5.60;;;;;;;4.79;100.00;102776.78;4973085;28;20034;-76
2023/02/13 03:32:00;;;;;;;11.25;5.75;;;;;;;4.76;100.00;102797.25;4984663;28;20574;-77
2023/02/13 03:37:53;;;;;;;;;;;;;;;4.72;100.00;102803.63;4972665;28;20506;-77
2023/02/13 03:40:06;;;;;;;8.50;4.78;;;;;;;4.71;100.00;102821.31;4971127;28;20049;-79
2023/02/13 03:42:39;;;;;;;11.13;5.85;;;;;;;4.70;100.00;102837.25;4971977;28;20038;-77
2023/02/13 03:51:05;;;;;;;13.57;6.80;;;;;;;4.70;100.00;102850.47;4940339;29;20043;-77
2023/02/13 03:53:34;;;;;;;13.00;6.95;;;;;;;4.70;100.00;102863.69;4931031;29;20031;-77
2023/02/13 04:01:36;;;;;;;11.60;6.43;;;;;;;4.65;100.00;102872.72;4946234;29;20035;-75
2023/02/13 04:04:13;;;;;;;13.60;6.57;;;;;;;4.63;100.00;102871.91;4945056;29;20039;-77
2023/02/13 04:06:48;;;;;;;13.23;8.05;;;;;;;4.68;100.00;102884.06;4925203;29;20074;-76
2023/02/13 04:09:15;;;;;;;13.50;7.38;;;;;;;4.69;100.00;102873.44;4914241;29;20090;-75
2023/02/13 04:12:08;;;;;;;12.05;6.43;;;;;;;4.70;100.00;102855.75;4945682;29;20654;-80
2023/02/13 04:14:44;;;;;;;10.60;6.57;;;;;;;4.73;100.00;102858.25;4922389;29;20441;-75
2023/02/13 04:17:25;;;;;;;12.70;6.95;;;;;;;4.78;100.00;102827.16;4909073;29;20058;-76
2023/02/13 04:19:51;;;;;;;13.13;7.30;;;;;;;4.82;100.00;102815.47;4946054;29;20047;-80
2023/02/13 04:22:17;;;;;;;14.63;7.38;;;;;;;4.81;100.00;102803.19;4946766;29;20035;-77
2023/02/13 04:24:43;;;;;;;17.83;7.78;;;;;;;4.81;100.00;102792.59;4976157;28;20137;-78
2023/02/13 04:27:14;;;;;;;14.32;9.00;;;;;;;4.86;100.00;102786.13;4971324;28;20034;-78
2023/02/13 04:29:40;;;;;;;17.20;7.72;;;;;;;4.89;100.00;102778.97;4967560;28;20403;-76
2023/02/13 04:32:05;;;;;;;13.05;8.27;;;;;;;4.84;100.00;102739.50;4989423;28;20034;-76
2023/02/13 04:34:30;;;;;;;18.27;9.27;;;;;;;4.92;100.00;102734.69;4971241;28;20037;-78
2023/02/13 04:36:56;;;;;;;13.70;7.73;;;;;;;4.91;100.00;102711.78;4970251;28;20052;-79
2023/02/13 04:39:21;;;;;;;13.63;7.23;;;;;;;4.90;100.00;102707.44;4971447;28;20042;-78
2023/02/13 04:41:46;;;;;;;16.90;8.90;;;;;;;4.85;100.00;102705.03;4970993;28;20406;-76
2023/02/13 04:44:12;;;;;;;16.77;8.43;;;;;;;4.79;100.00;102717.72;4972245;28;20038;-77
2023/02/13 04:46:37;;;;;;;17.53;9.67;;;;;;;4.78;100.00;102716.88;4982146;28;20080;-78
2023/02/13 04:49:02;;;;;;;16.87;9.53;;;;;;;4.78;100.00;102727.44;4982755;28;20125;-76
2023/02/13 04:51:28;;;;;;;18.23;8.73;;;;;;;4.82;100.00;102717.53;4970986;28;20038;-76
2023/02/13 04:53:53;;;;;;;19.40;8.00;;;;;;;4.81;100.00;102721.13;4971864;28;20091;-77
2023/02/13 04:56:18;;;;;;;16.60;10.13;;;;;;;4.79;100.00;102712.41;4969822;28;20324;-75
2023/02/13 04:58:44;;;;;;;17.97;9.67;;;;;;;4.85;100.00;102675.91;4982401;28;20046;-78
2023/02/13 05:01:14;;;;;;;19.27;9.63;;;;;;;4.86;100.00;102651.16;4975070;28;20122;-75
2023/02/13 05:03:40;;;;;;;15.38;9.75;;;;;;;4.87;100.00;102636.16;4972601;28;20149;-76
2023/02/13 05:06:05;;;;;;;18.58;10.07;;;;;;;4.84;100.00;102620.41;4970611;28;20822;-75
2023/02/13 05:08:31;;;;;;;20.83;10.68;;;;;;;4.82;100.00;102617.84;4989277;28;20038;-81
2023/02/13 05:10:56;;;;;;;18.77;10.03;;;;;;;4.78;100.00;102636.63;4986567;28;20060;-77
2023/02/13 05:13:21;;;;;;;17.00;9.87;;;;;;;4.76;100.00;102634.03;4988128;28;20305;-76
2023/02/13 05:15:47;;;;;;;23.47;10.47;;;;;;;4.76;100.00;102643.78;4982685;28;20030;-75
2023/02/13 05:18:14;;;;;;;22.58;10.25;;;;;;;4.79;100.00;102659.50;4954342;28;20112;-76
2023/02/13 05:20:40;;;;;;;19.40;11.15;;;;;;;4.71;100.00;102656.38;4969160;28;20022;-75
2023/02/13 05:23:22;;;;;;;19.10;10.00;;;;;;;4.74;100.00;102680.03;4987946;28;20041;-75
2023/02/13 05:25:47;;;;;;;22.52;12.27;;;;;;;4.77;100.00;102682.53;4952730;28;20125;-75
2023/02/13 05:30:57;;;;;;;24.13;11.80;;;;;;;4.74;100.00;102653.59;4984464;28;20049;-76
2023/02/13 05:33:23;;;;;;;19.77;11.98;;;;;;;4.75;100.00;102649.97;4986697;28;20085;-76
2023/02/13 05:35:48;;;;;;;18.35;11.20;;;;;;;4.77;100.00;102656.06;4966264;28;20484;-75
2023/02/13 05:38:13;;;;;;;21.20;11.90;;;;;;;4.75;100.00;102652.63;4986278;28;20042;-76
2023/02/13 05:40:39;;;;;;;22.35;11.68;;;;;;;4.72;100.00;102643.06;4969845;28;20034;-77
2023/02/13 05:45:34;;;;;;;20.30;11.48;;;;;;;4.68;100.00;102688.28;5011387;28;20104;-74
2023/02/13 05:48:00;;;;;;;25.93;13.70;;;;;;;4.69;100.00;102704.09;4984926;28;20038;-74
2023/02/13 05:50:26;;;;;;;27.35;11.32;;;;;;;4.71;100.00;102704.88;4997392;28;20038;-74
2023/02/13 05:52:54;;;;;;;25.52;13.10;;;;;;;4.67;100.00;102691.88;4982763;28;20026;-74
2023/02/13 05:55:19;;;;;;;23.27;13.17;;;;;;;4.74;100.00;102703.84;4983063;28;20049;-74
2023/02/13 05:57:44;;;;;;;21.43;11.27;;;;;;;4.72;100.00;102669.53;4982093;28;20045;-74
2023/02/13 06:00:10;;;;;;;27.60;12.80;;;;;;;4.73;100.00;102676.53;4981405;28;20210;-75
2023/02/13 06:02:35;;;;;;;22.98;13.07;;;;;;;4.73;100.00;102694.19;4979824;28;20045;-75
2023/02/13 06:05:01;;;;;;;24.30;12.83;;;;;;;4.74;100.00;102704.72;4984428;28;20034;-74
2023/02/13 06:07:26;;;;;;;21.07;11.80;;;;;;;4.72;100.00;102687.19;4980588;28;20519;-74
2023/02/13 06:09:51;;;;;;;22.70;12.60;;;;;;;4.73;100.00;102679.19;4981145;28;20040;-74
2023/02/13 06:12:17;;;;;;;23.53;12.30;;;;;;;4.70;100.00;102670.53;4982813;28;20033;-74
2023/02/13 06:14:42;;;;;;;22.07;12.97;;;;;;;4.70;100.00;102686.41;4983115;28;20445;-74
2023/02/13 06:17:07;;;;;;;25.63;12.93;;;;;;;4.68;100.00;102701.50;4986202;28;20073;-74
2023/02/13 06:19:33;;;;;;;24.47;14.27;;;;;;;4.62;100.00;102711.47;4985079;28;20065;-74
2023/02/13 06:21:58;;;;;;;21.02;12.02;;;;;;;4.59;100.00;102718.72;4984143;28;20085;-74
2023/02/13 06:24:24;;;;;;;19.43;11.13;;;;;;;4.66;100.00;102717.47;4982518;28;20389;-74
2023/02/13 06:26:49;;;;;;;25.33;13.25;;;;;;;4.64;100.00;102724.63;4982560;28;20034;-74
2023/02/13 06:29:14;;;;;;;24.80;13.53;;;;;;;4.61;100.00;102730.94;4981595;28;20042;-74
2023/02/13 06:31:40;;;;;;;23.77;13.10;;;;;;;4.61;100.00;102746.81;4979964;28;20452;-74
2023/02/13 06:34:05;;;;;;;23.50;13.50;;;;;;;4.61;100.00;102757.38;4981409;28;20053;-74
2023/02/13 06:36:30;;;;;;;21.33;12.13;;;;;;;4.57;100.00;102766.41;4979854;28;20044;-75
2023/02/13 06:38:56;;;;;;;24.10;12.47;;;;;;;4.60;100.00;102768.88;4962881;28;20454;-74
2023/02/13 06:41:21;;;;;;;24.47;12.87;;;;;;;4.62;100.00;102774.97;4976320;28;20080;-75
2023/02/13 06:43:47;;;;;;;22.37;12.90;;;;;;;4.60;100.00;102770.69;4981343;28;20050;-75
2023/02/13 06:46:12;;;;;;;21.07;10.77;;;;;;;4.62;100.00;102796.13;4982358;28;20057;-75
2023/02/13 06:48:37;;;;;;;22.13;11.70;;;;;;;4.56;100.00;102783.19;4964250;28;20030;-75
2023/02/13 06:51:03;;;;;;;24.65;12.25;;;;;;;4.63;100.00;102797.81;4968621;28;20038;-75
2023/02/13 06:53:29;;;;;;;23.77;12.70;;;;;;;4.58;100.00;102776.03;4978928;28;20423;-75
2023/02/13 06:55:55;;;;;;;23.38;13.77;;;;;;;4.63;100.00;102766.09;4972264;28;20093;-74
2023/02/13 06:58:22;;;;;;;26.58;13.90;;;;;;;4.63;100.00;102760.78;4989248;28;20027;-75
2023/02/13 07:00:48;;;;;;;23.40;12.52;;;;;;;4.61;100.00;102759.16;4976066;28;20035;-74
2023/02/13 07:03:13;;;;;;;23.42;12.30;;;;;;;4.59;100.00;102764.53;4978585;28;20046;-74
2023/02/13 07:05:43;;;;;;;26.43;13.77;;;;;;;4.58;100.00;102768.09;4975392;28;20101;-74
2023/02/13 07:08:09;;;;;;;22.52;12.32;;;;;;;4.63;100.00;102781.94;4947534;28;20061;-74
2023/02/13 07:10:39;;;;;;;21.85;12.88;;;;;;;4.60;100.00;102768.88;4965819;28;20038;-72
2023/02/13 07:13:05;;;;;;;21.58;11.57;;;;;;;4.63;100.00;102766.09;4979287;28;20045;-72
2023/02/13 07:15:31;;;;;;;22.83;12.63;;;;;;;4.68;100.00;102757.06;4985003;28;20035;-72
2023/02/13 07:17:57;;;;;;;24.92;13.50;;;;;;;4.68;100.00;102735.91;4973484;28;20026;-72
2023/02/13 07:20:23;;;;;;;22.40;12.82;;;;;;;4.64;100.00;102733.41;4981166;28;20026;-74
2023/02/13 07:22:49;;;;;;;22.05;11.70;;;;;;;4.70;100.00;102744.63;4978971;28;20034;-73
2023/02/13 07:25:14;;;;;;;24.75;12.55;;;;;;;4.70;100.00;102736.69;4981867;28;20034;-72
2023/02/13 07:27:40;;;;;;;25.42;13.18;;;;;;;4.68;100.00;102726.16;4983069;28;20037;-73
2023/02/13 07:30:06;;;;;;;20.27;10.77;;;;;;;4.69;100.00;102733.19;4984125;28;20049;-73
2023/02/13 07:32:31;;;;;;;19.98;11.13;;;;;;;4.69;100.00;102727.06;4983986;28;20134;-73
2023/02/13 07:34:56;;;;;;;23.80;12.67;;;;;;;4.69;100.00;102725.25;4985221;28;20041;-73
2023/02/13 07:37:22;;;;;;;21.47;11.90;;;;;;;4.74;100.00;102727.69;4982218;28;20297;-71
2023/02/13 07:39:47;;;;;;;24.38;12.00;;;;;;;4.71;100.00;102731.34;4983142;28;20103;-73
2023/02/13 07:42:13;;;;;;;20.87;10.93;;;;;;;4.77;100.00;102759.28;4967396;28;20038;-73
2023/02/13 07:44:38;;;;;;;22.77;11.73;;;;;;;4.79;100.00;102765.34;4983658;28;20105;-72
2023/02/13 07:47:03;;;;;;;19.10;10.83;;;;;;;4.75;100.00;102750.53;4985296;28;20738;-73
2023/02/13 07:49:29;;;;;;;19.90;11.33;;;;;;;4.83;100.00;102751.88;4979599;28;20535;-72
2023/02/13 07:51:56;;;;;;;22.13;12.90;;;;;;;4.83;100.00;102732.50;4985017;28;20043;-74
2023/02/13 07:54:22;;;;;;;19.38;10.98;;;;;;;4.86;100.00;102748.22;4984674;28;20285;-76
2023/02/13 07:56:47;;;;;;;17.33;10.03;;;;;;;4.82;100.00;102720.19;4985976;28;20034;-74
2023/02/13 07:59:12;;;;;;;15.40;9.33;;;;;;;4.87;100.00;102697.03;4987381;28;20027;-74
2023/02/13 08:01:38;;;;;;;20.07;10.67;;;;;;;4.92;100.00;102675.63;4984891;28;20119;-74
2023/02/13 08:04:03;;;;;;;21.47;10.57;;;;;;;4.91;100.00;102658.84;4969231;28;20384;-73
2023/02/13 08:06:28;;;;;;;18.58;10.30;;;;;;;4.92;100.00;102657.09;4987823;28;20054;-74
2023/02/13 08:11:52;;;;;;;17.97;9.60;;;;;;;4.87;100.00;102646.72;4985285;28;20101;-74
2023/02/13 08:11:54;;;;;;;15.48;9.07;;;;;;;4.97;100.00;102652.41;4983523;28;20042;-74
2023/02/13 08:14:21;;;;;;;22.85;10.52;;;;;;;4.96;100.00;102650.69;4983533;28;20034;-75
2023/02/13 08:16:47;;;;;;;16.83;9.02;;;;;;;4.94;100.00;102632.25;4983699;28;20019;-74
2023/02/13 08:19:12;;;;;;;12.37;7.17;;;;;;;4.95;100.00;102647.19;4983471;28;20045;-74
2023/02/13 08:21:39;;;;;;;13.17;7.70;;;;;;;4.98;100.00;102665.53;4982162;28;20281;-74
2023/02/13 08:24:05;;;;;;;15.10;7.47;;;;;;;5.03;100.00;102667.94;4971307;28;20088;-75
2023/02/13 08:26:31;;;;;;;15.25;6.85;;;;;;;5.00;100.00;102673.41;4982514;28;20086;-72
2023/02/13 08:28:56;;;;;;;13.75;7.40;;;;;;;4.99;100.00;102651.38;4967213;28;20078;-74
2023/02/13 08:31:22;;;;;;;11.93;7.03;;;;;;;5.01;100.00;102644.22;4981208;28;20483;-74
2023/02/13 08:33:47;;;;;;;16.33;8.40;;;;;;;5.02;100.00;102634.50;4983633;28;20385;-74
2023/02/13 08:36:13;;;;;;;13.60;7.10;;;;;;;5.00;100.00;102618.66;4969092;28;20303;-75
2023/02/13 08:38:38;;;;;;;14.20;7.27;;;;;;;4.99;100.00;102614.31;4982083;28;20072;-74
2023/02/13 08:41:04;;;;;;;12.50;6.50;;;;;;;5.03;100.00;102630.88;4967249;28;20515;-75
2023/02/13 08:43:29;;;;;;;13.73;6.40;;;;;;;5.11;100.00;102630.50;4966369;28;20412;-75
2023/02/13 08:45:58;;;;;;;10.03;5.93;;;;;;;5.14;100.00;102617.09;4987092;28;20030;-74
2023/02/13 08:48:24;;;;;;;16.20;7.55;;;;;;;5.15;100.00;102608.19;4987550;28;20118;-74
2023/02/13 08:50:49;;;;;;;14.70;6.15;;;;;;;5.17;100.00;102601.03;4983513;28;20122;-74
2023/02/13 08:53:14;;;;;;;11.97;6.17;;;;;;;5.15;100.00;102579.06;4984557;28;20081;-73
2023/02/13 08:55:40;;;;;;;11.27;6.20;;;;;;;5.19;100.00;102564.75;4988014;28;20039;-74
2023/02/13 08:58:05;;;;;;;10.33;6.03;;;;;;;5.25;100.00;102564.41;4983321;28;20046;-72
2023/02/13 09:00:31;;;;;;;11.37;5.60;;;;;;;5.28;100.00;102540.41;4984138;28;20061;-72
2023/02/13 09:03:01;;;;;;;10.13;6.25;;;;;;;5.30;100.00;102533.25;4969515;28;20053;-73
2023/02/13 09:05:27;;;;;;;11.75;6.43;;;;;;;5.28;100.00;102517.41;4981885;28;20092;-73
2023/02/13 09:07:53;;;;;;;;;;;;;;;5.29;100.00;102507.66;4984003;28;20145;-75
2023/02/13 09:10:18;;;;;;;11.05;6.25;;;;;;;5.27;100.00;102475.16;4982584;28;19924;-71
2023/02/13 09:12:43;;;;;;;11.10;6.57;;;;;;;5.28;100.00;102467.09;4964993;28;20043;-75
2023/02/13 09:15:09;;;;;;;10.73;6.03;;;;;;;5.27;100.00;102460.09;4982610;28;20034;-75
2023/02/13 09:17:36;;;;;;;12.45;5.90;;;;;;;5.38;100.00;102501.03;4981652;28;20064;-72
2023/02/13 09:20:01;;;;;;;11.27;6.33;;;;;;;5.42;100.00;102500.75;4986172;28;20034;-74
2023/02/13 09:22:27;;;;;;;12.47;6.37;;;;;;;5.37;100.00;102447.19;4985347;28;20034;-74
2023/02/13 09:24:53;;;;;;;11.07;6.32;;;;;;;5.35;100.00;102427.88;4984170;28;20109;-75
2023/02/13 09:27:18;;;;;;;14.50;6.80;;;;;;;5.42;100.00;102453.09;4985981;28;20562;-75
2023/02/13 09:29:43;;;;;;;11.67;5.93;;;;;;;5.50;100.00;102481.78;4985524;28;20534;-74
2023/02/13 09:32:09;;;;;;;11.77;7.27;;;;;;;5.52;100.00;102444.63;4985586;28;20174;-74
2023/02/13 09:34:34;;;;;;;9.93;6.43;;;;;;;5.59;100.00;102438.00;4983714;28;20045;-74
2023/02/13 09:36:59;;;;;;;12.07;6.53;;;;;;;5.62;100.00;102436.06;4985029;28;20135;-74
2023/02/13 09:39:25;;;;;;;12.87;6.67;;;;;;;5.61;100.00;102391.09;4981807;28;20074;-75
2023/02/13 09:41:52;;;;;;;12.53;7.37;;;;;;;5.67;100.00;102380.13;4982424;28;20061;-72
2023/02/13 09:44:42;;;;;;;13.57;7.78;;;;;;;5.77;100.00;102410.44;4981806;28;20038;-75
2023/02/13 09:47:28;;;;;;;16.23;7.47;;;;;;;5.75;100.00;102390.28;4978688;28;20034;-75
2023/02/13 09:49:59;;;;;;;10.85;6.85;;;;;;;5.80;100.00;102391.69;4984902;28;20089;-76
2023/02/13 09:52:30;;;;;;;12.30;7.80;;;;;;;5.82;100.00;102392.47;4984374;28;20503;-75
2023/02/13 09:54:56;;;;;;;12.73;6.80;;;;;;;5.88;100.00;102392.09;4985803;28;20085;-74
2023/02/13 09:57:41;;;;;;;13.70;7.70;;;;;;;5.94;100.00;102356.44;4983350;28;20018;-75
2023/02/13 10:00:12;;;;;;;11.77;7.07;;;;;;;5.96;100.00;102313.94;4978812;28;20049;-74
2023/02/13 10:02:55;;;;;;;17.05;8.80;;;;;;;5.87;100.00;102247.25;4982896;28;20038;-75
2023/02/13 10:05:39;;;;;;;14.13;7.07;;;;;;;5.96;100.00;102277.69;4987822;28;20034;-73
2023/02/13 10:08:42;;;;;;;11.43;7.32;;;;;;;6.01;100.00;102258.84;4999057;28;20046;-74
2023/02/13 10:11:24;;;;;;;18.85;7.97;;;;;;;6.10;100.00;102276.81;4977894;28;20038;-75
2023/02/13 10:14:22;;;;;;;12.23;7.18;;;;;;;6.12;100.00;102253.72;4984091;28;20022;-75
2023/02/13 10:17:13;;;;;;;14.30;7.03;;;;;;;6.13;100.00;102176.72;4983249;28;20111;-75
2023/02/13 10:20:00;;;;;;;16.25;8.57;;;;;;;6.13;100.00;102187.34;4984469;28;20077;-75
2023/02/13 10:22:37;;;;;;;12.93;8.85;;;;;;;6.16;100.00;102167.72;4985984;28;20439;-75
2023/02/13 10:25:15;;;;;;;14.60;7.50;;;;;;;6.20;100.00;102118.81;4994717;28;20035;-75
2023/02/13 10:27:49;;;;;;;17.67;8.20;;;;;;;6.26;100.00;102109.63;4979395;28;20046;-73
2023/02/13 10:30:22;;;;;;;13.30;8.02;;;;;;;6.04;100.00;102060.66;4981949;28;20471;-76
2023/02/13 10:33:18;;;;;;;13.90;7.50;;;;;;;6.14;100.00;102103.31;4973929;28;20031;-74
2023/02/13 10:35:57;;;;;;;13.75;8.75;;;;;;;6.26;100.00;102162.66;4983341;28;20448;-75
2023/02/13 10:38:24;;;;;;;11.45;7.47;;;;;;;6.28;100.00;102121.81;4982761;28;20046;-75
2023/02/13 10:40:58;;;;;;;13.05;7.53;;;;;;;6.39;100.00;102136.16;4981960;28;20050;-75
2023/02/13 10:43:28;;;;;;;14.23;9.20;;;;;;;6.32;100.00;102110.06;4982707;28;20093;-75
2023/02/13 10:46:14;;;;;;;14.95;8.38;;;;;;;6.38;100.00;102115.91;4982910;28;20045;-75
2023/02/13 10:48:48;;;;;;;15.00;8.57;;;;;;;6.21;100.00;102034.81;4959746;28;20192;-75
2023/02/13 10:51:34;;;;;;;15.38;8.95;;;;;;;6.34;100.00;102079.00;4967224;28;20031;-74
2023/02/13 10:53:59;;;;;;;;;;;;;;;6.31;100.00;102034.09;4980232;28;20034;-75
2023/02/13 10:56:39;;;;;;;14.18;9.02;;;;;;;6.29;100.00;101992.69;4985110;28;20353;-75
2023/02/13 10:59:14;;;;;;;15.30;8.75;;;;;;;6.34;100.00;101986.16;4977816;28;20031;-75
2023/02/13 11:01:45;;;;;;;14.88;8.80;;;;;;;6.43;100.00;101974.03;4982538;28;20045;-75
2023/02/13 11:04:15;;;;;;;20.55;9.38;;;;;;;6.41;100.00;101944.09;4981220;28;20129;-74
2023/02/13 11:06:55;;;;;;;15.13;9.20;;;;;;;6.36;100.00;101885.22;4981114;28;20031;-73
2023/02/13 11:09:20;;;;;;;14.52;8.93;;;;;;;6.37;100.00;101907.28;4982736;28;20471;-73
2023/02/13 11:11:46;;;;;;;16.20;8.90;;;;;;;6.44;100.00;101925.34;4981273;28;20033;-74
2023/02/13 11:14:13;;;;;;;12.07;8.60;;;;;;;6.44;100.00;101912.09;4982347;28;20148;-75
2023/02/13 11:16:48;;;;;;;14.50;9.05;;;;;;;6.37;100.00;101902.00;4980679;28;20125;-75
2023/02/13 11:19:18;;;;;;;13.23;8.73;;;;;;;6.39;100.00;101870.91;4982189;28;20169;-72
2023/02/13 11:21:45;;;;;;;14.55;8.50;;;;;;;6.43;100.00;101833.44;4979646;28;20515;-72
2023/02/13 11:24:26;;;;;;;14.73;9.35;;;;;;;6.49;100.00;101814.44;4981071;28;20510;-75
2023/02/13 11:27:07;;;;;;;13.85;7.75;;;;;;;6.42;100.00;101784.00;4998273;28;20038;-74
2023/02/13 11:29:35;;;;;;;15.52;8.30;;;;;;;6.39;100.00;101748.88;4984430;28;20129;-76
2023/02/13 11:32:15;;;;;;;20.67;8.60;;;;;;;6.31;100.00;101755.59;4985522;28;20050;-75
2023/02/13 11:34:41;;;;;;;16.70;8.10;;;;;;;6.42;100.00;101807.88;4967006;28;20039;-75
2023/02/13 11:37:19;;;;;;;14.55;8.90;;;;;;;6.50;100.00;101794.06;4984466;28;20023;-72
2023/02/13 11:39:47;;;;;;;18.20;8.95;;;;;;;6.44;100.00;101765.31;4983755;28;20081;-74
2023/02/13 11:42:15;;;;;;;15.27;8.52;;;;;;;6.45;100.00;101736.03;4985789;28;20068;-74
2023/02/13 11:44:43;;;;;;;14.80;8.30;;;;;;;6.65;100.00;101734.59;4984664;28;20105;-75
2023/02/13 11:47:09;;;;;;;24.38;9.07;;;;;;;6.52;100.00;101630.31;4979356;28;20041;-74
2023/02/13 11:49:43;;;;;;;15.60;8.45;;;;;;;6.64;100.00;101602.84;4986891;28;20022;-75
2023/02/13 11:52:28;;;;;;;13.30;8.02;;;;;;;6.68;100.00;101484.06;4990569;23;20045;-75
2023/02/13 11:54:58;;;;;;;13.48;8.10;;;;;;;6.83;100.00;101503.25;5015425;28;20684;-78
2023/02/13 11:57:29;;;;;;;12.35;7.47;;;;;;;6.92;100.00;101460.06;4990916;28;20037;-74
2023/02/13 11:59:54;;;;;;;13.80;7.97;;;;;;;6.75;100.00;101300.34;5023888;28;20107;-73
2023/02/13 12:02:24;;;;;;;11.57;7.95;;;;;;;6.48;100.00;101106.25;5001841;28;20619;-76
2023/02/13 12:05:12;;;;;;;11.30;7.65;;;;;;;6.46;100.00;101135.56;5004669;28;20052;-75
2023/02/13 12:07:38;;;;;;;11.75;7.07;;;;;;;6.60;100.00;101231.75;5012140;28;20033;-73
2023/02/13 12:10:21;;;;;;;12.02;7.68;;;;;;;6.71;100.00;101293.59;5017282;28;20037;-74
2023/02/13 12:13:11;;;;;;;13.98;8.20;;;;;;;6.62;100.00;101291.66;5021166;28;20342;-73
2023/02/13 12:15:36;;;;;;;20.20;9.75;;;;;;;6.60;100.00;101338.69;4988280;28;20044;-74